Pagrindinis puslapis
METAR-TAF:

METAR-TAF

Oro uostai :

Mešhedas, Iranas

platuma: 36-16N, ilguma: 059-38E, Aukštis: 989 m

Dabartinis oras

Ataskaita buvo paskelbta 16 minutes, ne 08:30 UTC
Vėjas 6 kt iš Pietų/Pietryčių
Temperatūra 38°C
Drėgmė 9%
Slėgis 1014 hPa
Matomumas 10 km arba daugiau
Mažai debesys ne aukštis 3500 ft

METAR: OIMM 050830Z 15006KT 9999 FEW035 38/M00 Q1014 A2995

Laikas: 13:16 (08:46 UTC)

Prognozė

Ataskaita buvo paskelbta 3 valandos ir 16 minutes, ne 05:30 UTC
Prognozė galioja nuo 05 metu 06 UTC su 06 metu 12 UTC
Vėjas 10 kt iš Rytų
Matomumas: 7000 m
Mažai debesys ne aukštis 4000 ft
Laikinai
nuo 05 metu 10 UTC su 05 metu 16 UTC
Vėjas 20 kt iš Rytų/Šiaurės Rytų
Laikinai
nuo 06 metu 09 UTC su 06 metu 12 UTC
Vėjas 12 kt iš Rytų su gūsio iki 22 kt
Mažai debesys ne aukštis 3500 ft
Mažai debesys ne aukštis 4000 ft, Liūtiniai kamuoliniai debesys.
Su prošvaistėmis ne aukštis 10000 ft

TAF: OIMM 050530Z 0506/0612 08010KT 7000 FEW040 TEMPO 0510/0516 06020KT TEMPO 0609/0612 08012G22KT FEW035 FEW040CB BKN100

Orai ataskaitas ir orų prognozės (METAR, TAF).

turimą stotys yra geltonos ir raudonos taškus žemėlapyje.

Perkelti pele per norėdami pamatyti stoties vardą.

Tada spustelėkite, norėdami matyti oro stebėjimo ir prognozės.

Norėdami pakeisti žemėlapį: spustelėkite ant žalios mygtukų su juodo kryžiaus žemyn,; žalią mygtuką su brūkšneliu, jei norite nutolinti; arba žalių rodyklių gretimoms žemėlapius.


METAR-TAF: